Time;durP1;ratioP1;P1;durP2;ratioP2;P2;SDS_P1;SDS_P2;PMS_P1;PMS_P2;Temp;Humidity;BMP_temperature;BMP_pressure;BME280_temperature;BME280_humidity;BME280_pressure;Samples;Min_cycle;Max_cycle;Signal;HPM_P1;HPM_P2
2023/03/09 00:02:16;;;;;;;34.15;17.25;;;1.20;99.90;;;;;;5033286;28;20029;-57
2023/03/09 00:04:42;;;;;;;38.83;19.38;;;1.20;99.90;;;;;;5037970;28;20473;-61
2023/03/09 00:07:07;;;;;;;31.23;17.15;;;1.10;99.90;;;;;;5027817;28;20108;-61
2023/03/09 00:09:33;;;;;;;31.08;16.60;;;1.10;99.90;;;;;;5038039;28;20040;-61
2023/03/09 00:11:58;;;;;;;36.22;18.55;;;1.20;99.90;;;;;;5025854;28;20033;-61
2023/03/09 00:14:24;;;;;;;37.05;19.00;;;1.20;99.90;;;;;;5035093;28;20034;-57
2023/03/09 00:16:50;;;;;;;36.33;18.55;;;1.10;99.90;;;;;;5039834;28;20037;-59
2023/03/09 00:19:20;;;;;;;43.75;20.63;;;1.20;99.90;;;;;;5032754;28;20033;-59
2023/03/09 00:21:51;;;;;;;35.95;18.15;;;1.10;99.90;;;;;;5025474;28;20420;-55
2023/03/09 00:24:18;;;;;;;37.88;18.42;;;1.10;99.90;;;;;;5020199;28;20144;-59
2023/03/09 00:26:50;;;;;;;33.10;16.58;;;1.10;99.90;;;;;;5046149;28;20061;-59
2023/03/09 00:29:16;;;;;;;36.05;17.98;;;1.10;99.90;;;;;;5035038;28;20036;-59
2023/03/09 00:31:42;;;;;;;37.40;18.83;;;1.10;99.90;;;;;;5028786;28;20674;-58
2023/03/09 00:34:08;;;;;;;35.50;18.67;;;1.20;99.90;;;;;;5046907;28;20043;-59
2023/03/09 00:36:34;;;;;;;35.35;16.98;;;1.10;99.90;;;;;;5028540;28;20252;-59
2023/03/09 00:39:00;;;;;;;34.95;17.75;;;1.10;99.90;;;;;;5028183;28;20033;-58
2023/03/09 00:41:28;;;;;;;35.05;17.88;;;1.10;99.90;;;;;;5048375;28;20090;-59
2023/03/09 00:43:54;;;;;;;34.05;17.13;;;1.10;99.90;;;;;;5027485;28;20037;-59
2023/03/09 00:46:19;;;;;;;39.25;19.48;;;1.10;99.90;;;;;;5048407;28;20024;-59
2023/03/09 00:48:45;;;;;;;35.65;18.63;;;1.10;99.90;;;;;;5027804;28;20024;-59
2023/03/09 00:51:11;;;;;;;31.58;17.08;;;1.10;99.90;;;;;;5048260;28;20029;-59
2023/03/09 00:53:37;;;;;;;39.30;18.48;;;1.00;99.90;;;;;;5027839;28;20032;-58
2023/03/09 00:56:06;;;;;;;39.92;20.23;;;1.00;99.90;;;;;;5047938;28;20037;-58
2023/03/09 00:58:32;;;;;;;39.75;19.40;;;1.00;99.90;;;;;;5027400;28;20041;-58
2023/03/09 01:00:57;;;;;;;33.63;17.73;;;1.00;99.90;;;;;;5047033;28;20110;-59
2023/03/09 01:03:23;;;;;;;39.75;19.02;;;1.00;99.90;;;;;;5027549;28;20072;-60
2023/03/09 01:05:49;;;;;;;36.42;17.60;;;1.10;99.90;;;;;;5033056;28;20116;-57
2023/03/09 01:08:15;;;;;;;33.00;16.95;;;1.10;99.90;;;;;;5034159;28;20025;-59
2023/03/09 01:10:41;;;;;;;39.33;19.55;;;1.10;99.90;;;;;;5047112;28;20559;-58
2023/03/09 01:13:09;;;;;;;39.42;18.55;;;1.00;99.90;;;;;;5026045;28;20043;-59
2023/03/09 01:15:35;;;;;;;38.83;19.05;;;1.00;99.90;;;;;;5039613;28;20039;-59
2023/03/09 01:18:00;;;;;;;42.72;20.50;;;1.10;99.90;;;;;;5036323;28;20021;-59
2023/03/09 01:20:26;;;;;;;36.72;18.35;;;1.00;99.90;;;;;;5039637;28;20030;-59
2023/03/09 01:22:52;;;;;;;40.42;19.95;;;1.00;99.90;;;;;;5026677;28;20041;-60
2023/03/09 01:25:17;;;;;;;39.17;19.55;;;1.00;99.90;;;;;;5035570;28;20024;-59
2023/03/09 01:27:43;;;;;;;37.92;18.13;;;1.00;99.90;;;;;;5032080;28;20037;-59
2023/03/09 01:30:10;;;;;;;41.38;18.98;;;1.00;99.90;;;;;;5027782;28;20037;-59
2023/03/09 01:32:36;;;;;;;40.95;19.80;;;1.00;99.90;;;;;;5026328;28;20103;-60
2023/03/09 01:35:03;;;;;;;40.78;19.05;;;1.00;99.90;;;;;;5042342;28;20036;-59
2023/03/09 01:37:29;;;;;;;41.30;19.20;;;1.00;99.90;;;;;;5024511;28;20032;-59
2023/03/09 01:39:54;;;;;;;38.92;19.27;;;1.00;99.90;;;;;;5043776;28;20025;-59
2023/03/09 01:42:20;;;;;;;38.67;19.15;;;1.00;99.90;;;;;;5043962;28;20025;-59
2023/03/09 01:45:05;;;;;;;39.00;18.50;;;1.10;99.90;;;;;;5026398;28;20045;-60
2023/03/09 01:47:31;;;;;;;34.07;16.53;;;1.10;99.90;;;;;;5006405;28;20076;-60
2023/03/09 01:49:57;;;;;;;39.78;18.85;;;1.10;99.90;;;;;;5042637;28;20073;-59
2023/03/09 01:52:28;;;;;;;40.60;19.38;;;1.10;99.90;;;;;;5025670;28;20025;-60
2023/03/09 01:54:59;;;;;;;41.72;20.40;;;1.00;99.90;;;;;;5006445;28;20029;-60
2023/03/09 01:57:40;;;;;;;35.90;17.17;;;1.00;99.90;;;;;;5006112;28;20121;-59
2023/03/09 02:00:11;;;;;;;39.30;18.95;;;1.10;99.90;;;;;;5007587;28;20048;-59
2023/03/09 02:02:40;;;;;;;42.83;18.88;;;1.00;99.90;;;;;;5025972;28;20040;-59
2023/03/09 02:05:10;;;;;;;35.20;18.02;;;1.00;99.90;;;;;;5029944;28;20596;-59
2023/03/09 02:07:38;;;;;;;39.85;19.10;;;1.00;99.90;;;;;;5024740;28;20405;-59
2023/03/09 02:10:17;;;;;;;39.88;17.17;;;1.00;99.90;;;;;;5033324;28;20022;-59
2023/03/09 02:12:47;;;;;;;37.90;18.60;;;1.00;99.90;;;;;;5031717;28;20034;-59
2023/03/09 02:15:12;;;;;;;37.53;18.63;;;1.00;99.90;;;;;;5041391;28;20052;-58
2023/03/09 02:17:38;;;;;;;41.15;19.60;;;0.90;99.90;;;;;;5025535;28;20091;-60
2023/03/09 02:20:21;;;;;;;35.70;18.05;;;0.90;99.90;;;;;;5041700;28;20033;-60
2023/03/09 02:22:48;;;;;;;43.30;19.60;;;0.90;99.90;;;;;;5038179;28;20033;-60
2023/03/09 02:25:35;;;;;;;43.50;19.13;;;0.80;99.90;;;;;;5030289;28;20025;-60
2023/03/09 02:28:03;;;;;;;38.05;18.00;;;0.80;99.90;;;;;;5031892;28;20032;-60
2023/03/09 02:30:32;;;;;;;33.92;16.15;;;0.80;99.90;;;;;;5044399;28;20037;-60
2023/03/09 02:33:06;;;;;;;33.50;16.83;;;0.80;99.90;;;;;;5031968;28;20028;-60
2023/03/09 02:35:32;;;;;;;39.88;18.30;;;0.80;99.90;;;;;;5044637;28;20064;-59
2023/03/09 02:37:57;;;;;;;33.42;16.45;;;0.80;99.90;;;;;;5031779;28;20021;-61
2023/03/09 02:40:31;;;;;;;36.30;17.20;;;0.80;99.90;;;;;;5044886;28;20077;-60
2023/03/09 02:42:57;;;;;;;33.90;16.58;;;0.80;99.90;;;;;;5031703;28;20038;-61
2023/03/09 02:45:23;;;;;;;38.63;16.77;;;0.80;99.90;;;;;;5045039;28;20532;-60
2023/03/09 02:47:49;;;;;;;34.97;16.35;;;0.80;99.90;;;;;;5030399;28;20033;-60
2023/03/09 02:50:15;;;;;;;36.15;17.55;;;0.70;99.90;;;;;;5046242;28;20374;-59
2023/03/09 02:52:41;;;;;;;37.75;18.40;;;0.80;99.90;;;;;;5031293;28;20064;-60
2023/03/09 02:55:07;;;;;;;34.40;17.30;;;0.70;99.90;;;;;;5047138;28;20496;-59
2023/03/09 02:57:33;;;;;;;36.25;17.08;;;0.80;99.90;;;;;;5031586;28;20021;-59
2023/03/09 02:59:59;;;;;;;43.00;19.77;;;0.80;99.90;;;;;;5048287;28;20216;-62
2023/03/09 03:02:25;;;;;;;40.42;18.90;;;0.70;99.90;;;;;;5031124;28;20089;-59
2023/03/09 03:04:50;;;;;;;39.08;18.73;;;0.60;99.90;;;;;;5046809;28;20428;-60
2023/03/09 03:07:16;;;;;;;37.45;18.10;;;0.60;99.90;;;;;;5026724;28;20052;-60
2023/03/09 03:09:41;;;;;;;39.60;17.55;;;0.60;99.90;;;;;;5050886;28;20040;-58
2023/03/09 03:12:07;;;;;;;42.72;18.80;;;0.60;99.90;;;;;;5029852;28;20513;-59
2023/03/09 03:14:32;;;;;;;40.67;18.67;;;0.70;99.90;;;;;;5031298;28;20434;-59
2023/03/09 03:16:58;;;;;;;45.30;19.33;;;0.60;99.90;;;;;;5046985;28;20044;-59
2023/03/09 03:19:24;;;;;;;39.05;17.65;;;0.60;99.90;;;;;;5030795;28;20537;-58
2023/03/09 03:21:49;;;;;;;41.75;20.15;;;0.60;99.90;;;;;;5035921;28;20029;-66
2023/03/09 03:24:16;;;;;;;39.33;19.35;;;0.60;99.90;;;;;;5050389;28;20032;-66
2023/03/09 03:26:42;;;;;;;38.70;19.83;;;0.60;99.90;;;;;;5027948;28;20030;-66
2023/03/09 03:29:08;;;;;;;44.60;20.45;;;0.60;99.90;;;;;;5050248;28;20028;-67
2023/03/09 03:31:34;;;;;;;41.65;19.95;;;0.60;99.90;;;;;;5029413;28;20046;-65
2023/03/09 03:33:59;;;;;;;38.80;19.08;;;0.60;99.90;;;;;;5048970;28;20516;-67
2023/03/09 03:36:25;;;;;;;40.13;20.10;;;0.60;99.90;;;;;;5029359;28;20033;-67
2023/03/09 03:38:50;;;;;;;44.63;21.08;;;0.60;99.90;;;;;;5049891;28;20489;-66
2023/03/09 03:41:16;;;;;;;45.75;20.83;;;0.60;99.90;;;;;;5029384;28;20029;-67
2023/03/09 03:43:41;;;;;;;39.85;20.08;;;0.50;99.90;;;;;;5049417;28;20072;-66
2023/03/09 03:46:07;;;;;;;44.53;21.77;;;0.50;99.90;;;;;;5029296;28;20022;-67
2023/03/09 03:48:33;;;;;;;47.95;22.13;;;0.50;99.90;;;;;;5029362;28;20022;-65
2023/03/09 03:50:58;;;;;;;40.78;20.27;;;0.50;99.90;;;;;;5042562;28;20778;-66
2023/03/09 03:53:24;;;;;;;46.83;22.65;;;0.40;99.90;;;;;;5030255;28;20037;-66
2023/03/09 03:55:49;;;;;;;49.50;23.23;;;0.50;99.90;;;;;;5043792;28;20405;-66
2023/03/09 03:58:15;;;;;;;44.38;21.70;;;0.50;99.90;;;;;;5030707;28;20029;-67
2023/03/09 04:00:40;;;;;;;49.92;23.63;;;0.50;99.90;;;;;;5030202;28;20033;-66
2023/03/09 04:03:06;;;;;;;49.47;23.90;;;0.50;99.90;;;;;;5027469;28;20110;-67
2023/03/09 04:05:32;;;;;;;50.97;23.52;;;0.50;99.90;;;;;;5034192;28;20021;-67
2023/03/09 04:07:57;;;;;;;43.33;20.58;;;0.40;99.90;;;;;;5037075;28;20033;-67
2023/03/09 04:10:23;;;;;;;57.60;26.02;;;0.50;99.90;;;;;;5027890;28;20347;-67
2023/03/09 04:12:49;;;;;;;53.65;24.08;;;0.50;99.90;;;;;;5039156;28;20037;-66
2023/03/09 04:15:15;;;;;;;47.65;23.60;;;0.50;99.90;;;;;;5049286;28;20528;-67
2023/03/09 04:17:41;;;;;;;52.60;25.83;;;0.50;99.90;;;;;;5028149;28;20043;-66
2023/03/09 04:20:07;;;;;;;57.05;24.92;;;0.50;99.90;;;;;;5030014;28;20557;-66
2023/03/09 04:22:32;;;;;;;50.53;25.75;;;0.40;99.90;;;;;;5040811;28;20060;-65
2023/03/09 04:24:58;;;;;;;54.38;25.35;;;0.50;99.90;;;;;;5029671;28;20053;-66
2023/03/09 04:27:24;;;;;;;54.33;26.02;;;0.40;99.90;;;;;;5041831;28;20091;-66
2023/03/09 04:29:49;;;;;;;52.70;25.88;;;0.40;99.90;;;;;;5029731;28;20545;-67
2023/03/09 04:32:15;;;;;;;52.47;25.38;;;0.40;99.90;;;;;;5043392;28;20033;-66
2023/03/09 04:34:40;;;;;;;52.58;24.50;;;0.40;99.90;;;;;;5029305;28;20482;-65
2023/03/09 04:37:06;;;;;;;53.38;27.40;;;0.40;99.90;;;;;;5044279;28;20398;-66
2023/03/09 04:39:31;;;;;;;53.38;25.15;;;0.50;99.90;;;;;;5029738;28;20079;-66
2023/03/09 04:41:57;;;;;;;53.22;26.48;;;0.40;99.90;;;;;;5045411;28;20064;-67
2023/03/09 04:44:22;;;;;;;51.53;24.95;;;0.40;99.90;;;;;;5027885;28;20022;-66
2023/03/09 04:46:47;;;;;;;52.95;26.33;;;0.50;99.90;;;;;;5046501;28;20477;-66
2023/03/09 04:49:13;;;;;;;59.55;27.35;;;0.50;99.90;;;;;;5027227;28;20049;-66
2023/03/09 04:51:39;;;;;;;58.13;25.67;;;0.50;99.90;;;;;;5028156;28;20103;-66
2023/03/09 04:54:04;;;;;;;53.75;26.75;;;0.40;99.90;;;;;;5048418;28;20112;-66
2023/03/09 04:56:30;;;;;;;54.45;25.23;;;0.50;99.90;;;;;;5047612;28;20025;-66
2023/03/09 04:58:55;;;;;;;53.83;25.88;;;0.50;99.90;;;;;;5026198;28;20036;-66
2023/03/09 05:01:21;;;;;;;52.55;25.55;;;0.50;99.90;;;;;;5029042;28;20665;-65
2023/03/09 05:03:47;;;;;;;56.63;26.88;;;0.50;99.90;;;;;;5046430;28;20445;-65
2023/03/09 05:06:12;;;;;;;50.25;25.35;;;0.50;99.90;;;;;;5024509;28;20060;-65
2023/03/09 05:08:38;;;;;;;49.80;25.50;;;0.50;99.90;;;;;;5037091;28;20064;-69
2023/03/09 05:11:03;;;;;;;51.20;26.38;;;0.50;99.90;;;;;;5048012;28;20021;-65
2023/03/09 05:13:29;;;;;;;52.60;26.73;;;0.50;99.90;;;;;;5027808;28;20025;-66
2023/03/09 05:15:54;;;;;;;48.95;25.10;;;0.50;99.90;;;;;;5032130;28;20037;-60
2023/03/09 05:18:20;;;;;;;52.65;26.08;;;0.50;99.90;;;;;;5047535;28;20515;-60
2023/03/09 05:20:45;;;;;;;47.78;23.85;;;0.50;99.90;;;;;;5027481;28;20034;-60
2023/03/09 05:23:11;;;;;;;50.58;26.15;;;0.50;99.90;;;;;;5047848;28;20504;-61
2023/03/09 05:25:37;;;;;;;52.95;25.40;;;0.50;99.90;;;;;;5027496;28;20026;-61
2023/03/09 05:28:04;;;;;;;55.20;27.85;;;0.50;99.90;;;;;;5047667;28;20089;-61
2023/03/09 05:30:30;;;;;;;53.70;26.80;;;0.50;99.90;;;;;;5037848;28;20099;-61
2023/03/09 05:32:55;;;;;;;47.50;24.35;;;0.50;99.90;;;;;;5028898;28;20515;-61
2023/03/09 05:35:21;;;;;;;52.75;25.25;;;0.50;99.90;;;;;;5045492;28;20060;-61
2023/03/09 05:37:47;;;;;;;52.00;25.50;;;0.50;99.90;;;;;;5025540;28;20044;-61
2023/03/09 05:40:13;;;;;;;51.53;26.55;;;0.50;99.90;;;;;;5047801;28;20048;-61
2023/03/09 05:42:40;;;;;;;46.80;25.45;;;0.50;99.90;;;;;;5026784;28;20166;-60
2023/03/09 05:45:06;;;;;;;47.92;26.08;;;0.50;99.90;;;;;;5047788;28;20396;-61
2023/03/09 05:47:32;;;;;;;50.72;26.40;;;0.50;99.90;;;;;;5026562;28;20399;-61
2023/03/09 05:49:58;;;;;;;50.00;24.67;;;0.50;99.90;;;;;;5027503;28;20623;-60
2023/03/09 05:52:23;;;;;;;47.88;24.75;;;0.50;99.90;;;;;;5029666;28;20060;-61
2023/03/09 05:54:49;;;;;;;49.08;24.65;;;0.50;99.90;;;;;;5047702;28;20037;-61
2023/03/09 05:57:14;;;;;;;49.88;24.55;;;0.50;99.90;;;;;;5026708;28;20421;-61
2023/03/09 05:59:40;;;;;;;41.20;22.45;;;0.50;99.90;;;;;;5047365;28;20032;-61
2023/03/09 06:02:06;;;;;;;46.97;23.58;;;0.50;99.90;;;;;;5027050;28;20065;-60
2023/03/09 06:04:31;;;;;;;45.08;23.33;;;0.50;99.90;;;;;;5047288;28;20293;-61
2023/03/09 06:06:57;;;;;;;40.70;21.88;;;0.40;99.90;;;;;;5020490;28;20115;-60
2023/03/09 06:09:23;;;;;;;41.15;22.38;;;0.50;99.90;;;;;;5040331;28;20041;-60
2023/03/09 06:11:48;;;;;;;42.03;21.70;;;0.40;99.90;;;;;;5026505;28;20028;-60
2023/03/09 06:14:14;;;;;;;41.22;20.92;;;0.40;99.90;;;;;;5037689;28;20037;-60
2023/03/09 06:16:39;;;;;;;38.75;21.15;;;0.50;99.90;;;;;;5025711;28;20595;-60
2023/03/09 06:19:05;;;;;;;39.58;20.05;;;0.50;99.90;;;;;;5043746;28;20036;-60
2023/03/09 06:21:31;;;;;;;37.63;20.95;;;0.40;99.90;;;;;;5046684;28;20033;-61
2023/03/09 06:23:57;;;;;;;34.10;18.67;;;0.50;99.90;;;;;;5028797;28;20124;-60
2023/03/09 06:26:23;;;;;;;33.75;18.63;;;0.50;99.90;;;;;;5046643;28;20086;-61
2023/03/09 06:28:49;;;;;;;38.10;19.73;;;0.50;99.90;;;;;;5027556;28;20116;-60
2023/03/09 06:31:15;;;;;;;37.00;20.63;;;0.50;99.90;;;;;;5035231;28;20477;-61
2023/03/09 06:33:45;;;;;;;38.75;20.85;;;0.50;99.90;;;;;;5043795;28;20029;-60
2023/03/09 06:36:13;;;;;;;34.55;20.05;;;0.40;99.90;;;;;;5046522;28;20102;-61
2023/03/09 06:38:38;;;;;;;32.53;18.58;;;0.40;99.90;;;;;;5025593;28;20736;-60
2023/03/09 06:41:04;;;;;;;39.90;21.42;;;0.40;99.90;;;;;;5045276;28;20056;-60
2023/03/09 06:43:30;;;;;;;33.22;18.63;;;0.50;99.90;;;;;;5027247;28;20080;-60
2023/03/09 06:45:55;;;;;;;34.53;19.58;;;0.40;99.90;;;;;;5037146;28;20086;-61
2023/03/09 06:48:21;;;;;;;34.25;19.42;;;0.50;99.90;;;;;;5025566;28;20088;-60
2023/03/09 06:50:48;;;;;;;34.08;19.15;;;0.50;99.90;;;;;;5014001;28;20081;-61
2023/03/09 06:53:14;;;;;;;32.58;17.52;;;0.50;99.90;;;;;;5018841;28;20501;-60
2023/03/09 06:55:40;;;;;;;33.13;17.52;;;0.50;99.90;;;;;;5028575;28;20045;-60
2023/03/09 06:58:06;;;;;;;30.65;17.20;;;0.60;99.90;;;;;;5047284;28;20033;-61
2023/03/09 07:00:31;;;;;;;34.00;18.23;;;0.60;99.90;;;;;;5025825;28;20037;-60
2023/03/09 07:02:57;;;;;;;30.13;16.08;;;0.60;99.90;;;;;;5046727;28;20032;-58
2023/03/09 07:05:23;;;;;;;30.42;17.58;;;0.60;99.90;;;;;;5028054;28;20105;-61
2023/03/09 07:07:49;;;;;;;27.77;16.23;;;0.70;99.90;;;;;;5028070;28;20140;-60
2023/03/09 07:10:14;;;;;;;33.75;18.65;;;0.80;99.90;;;;;;5034495;28;20033;-60
2023/03/09 07:12:40;;;;;;;31.48;17.17;;;0.80;99.90;;;;;;5049722;28;20035;-60
2023/03/09 07:15:07;;;;;;;29.10;16.95;;;0.80;99.90;;;;;;5029716;28;20033;-60
2023/03/09 07:17:32;;;;;;;26.67;15.07;;;0.90;99.90;;;;;;5050066;28;20400;-60
2023/03/09 07:19:58;;;;;;;25.02;15.88;;;1.00;99.90;;;;;;5029151;28;20033;-60
2023/03/09 07:22:23;;;;;;;30.15;17.63;;;1.10;99.90;;;;;;5049859;28;20111;-60
2023/03/09 07:24:49;;;;;;;34.47;18.05;;;1.00;99.90;;;;;;5039965;28;20389;-61
2023/03/09 07:27:15;;;;;;;30.60;18.08;;;1.00;99.90;;;;;;5031066;28;20445;-60
2023/03/09 07:29:40;;;;;;;27.80;16.38;;;1.10;99.90;;;;;;5047561;28;20037;-60
2023/03/09 07:32:06;;;;;;;31.08;19.08;;;1.10;99.90;;;;;;5031031;28;20128;-61
2023/03/09 07:34:33;;;;;;;30.45;18.60;;;1.00;99.90;;;;;;5047876;28;20087;-61
2023/03/09 07:36:59;;;;;;;31.55;18.33;;;1.00;99.90;;;;;;5030744;28;20040;-61
2023/03/09 07:39:25;;;;;;;28.75;17.73;;;1.00;99.90;;;;;;5047833;28;20120;-60
2023/03/09 07:41:50;;;;;;;32.40;18.55;;;1.00;99.90;;;;;;5050481;28;20104;-60
2023/03/09 07:44:16;;;;;;;30.52;15.98;;;1.00;99.90;;;;;;5034542;28;20041;-60
2023/03/09 07:46:41;;;;;;;29.40;17.40;;;1.10;99.90;;;;;;5049935;28;20133;-61
2023/03/09 07:49:07;;;;;;;31.17;18.20;;;1.10;99.90;;;;;;5033646;28;20118;-60
2023/03/09 07:51:33;;;;;;;34.75;18.45;;;1.10;99.90;;;;;;5050080;28;20482;-59
2023/03/09 07:53:59;;;;;;;32.13;17.75;;;1.00;99.90;;;;;;5031981;28;20112;-60
2023/03/09 07:56:25;;;;;;;30.95;18.13;;;1.00;99.90;;;;;;5050027;28;20032;-60
2023/03/09 07:58:52;;;;;;;31.60;18.45;;;1.10;99.90;;;;;;5031082;28;20037;-60
2023/03/09 08:01:18;;;;;;;32.75;18.60;;;1.10;99.90;;;;;;5049688;28;20472;-60
2023/03/09 08:03:45;;;;;;;34.25;19.35;;;1.10;99.90;;;;;;5029912;28;20489;-61
2023/03/09 08:06:10;;;;;;;35.55;19.70;;;1.10;99.90;;;;;;5043682;28;20032;-60
2023/03/09 08:08:36;;;;;;;34.30;19.38;;;1.20;99.90;;;;;;5028625;28;20605;-60
2023/03/09 08:11:03;;;;;;;31.88;18.88;;;1.20;99.90;;;;;;5049734;28;20117;-60
2023/03/09 08:13:30;;;;;;;31.35;18.67;;;1.30;99.90;;;;;;5030275;28;20021;-60
2023/03/09 08:15:58;;;;;;;33.67;19.95;;;1.30;99.90;;;;;;5047529;28;20187;-60
2023/03/09 08:18:24;;;;;;;33.78;19.42;;;1.30;99.90;;;;;;5029590;28;20029;-60
2023/03/09 08:20:49;;;;;;;34.28;19.58;;;1.40;99.90;;;;;;5027932;28;20033;-60
2023/03/09 08:23:15;;;;;;;41.40;21.90;;;1.40;99.90;;;;;;5048671;28;20040;-60
2023/03/09 08:25:41;;;;;;;39.15;22.90;;;1.40;99.90;;;;;;5027855;28;20038;-60
2023/03/09 08:28:06;;;;;;;38.90;19.67;;;1.30;99.90;;;;;;5048682;28;20310;-60
2023/03/09 08:30:32;;;;;;;33.95;20.80;;;1.50;99.90;;;;;;5033355;28;20067;-60
2023/03/09 08:32:57;;;;;;;33.22;20.35;;;1.60;99.90;;;;;;5048963;28;20104;-61
2023/03/09 08:35:27;;;;;;;36.45;21.05;;;1.60;99.90;;;;;;5028237;28;20045;-60
2023/03/09 08:37:53;;;;;;;35.50;21.92;;;1.50;99.90;;;;;;5049264;28;20502;-60
2023/03/09 08:40:18;;;;;;;33.63;19.38;;;1.50;99.90;;;;;;5027700;28;20053;-60
2023/03/09 08:42:44;;;;;;;36.35;20.38;;;1.50;99.90;;;;;;5048194;28;20036;-60
2023/03/09 08:45:10;;;;;;;31.23;18.30;;;1.50;99.90;;;;;;5027957;28;20104;-60
2023/03/09 08:47:36;;;;;;;32.15;19.35;;;1.50;99.90;;;;;;5048127;28;20036;-60
2023/03/09 08:50:03;;;;;;;35.50;20.90;;;1.40;99.90;;;;;;5027716;28;20029;-60
2023/03/09 08:52:34;;;;;;;35.42;20.27;;;1.30;99.90;;;;;;5048443;28;20025;-60
2023/03/09 08:55:03;;;;;;;38.50;21.23;;;1.30;99.90;;;;;;5019232;28;20018;-60
2023/03/09 08:57:29;;;;;;;33.55;19.33;;;1.30;99.90;;;;;;5048644;28;20021;-60
2023/03/09 08:59:55;;;;;;;34.15;19.00;;;1.30;99.90;;;;;;5027489;28;20041;-60
2023/03/09 09:02:21;;;;;;;34.72;19.40;;;1.40;99.90;;;;;;5046778;28;20028;-60
2023/03/09 09:04:47;;;;;;;33.40;19.75;;;1.40;99.90;;;;;;5034271;28;20404;-59
2023/03/09 09:07:14;;;;;;;36.72;20.13;;;1.40;99.90;;;;;;5029260;28;20485;-60
2023/03/09 09:09:41;;;;;;;32.90;20.20;;;1.40;99.90;;;;;;5045854;28;20560;-60
2023/03/09 09:12:08;;;;;;;35.50;21.20;;;1.30;99.90;;;;;;5029043;28;20378;-61
2023/03/09 09:14:34;;;;;;;38.83;21.40;;;1.30;99.90;;;;;;5046128;28;20037;-63
2023/03/09 09:17:00;;;;;;;37.78;19.73;;;1.30;99.90;;;;;;5038339;28;20033;-64
2023/03/09 09:19:26;;;;;;;32.40;19.33;;;1.30;99.90;;;;;;5034148;28;20037;-65
2023/03/09 09:21:52;;;;;;;34.10;20.10;;;1.40;99.90;;;;;;5048482;28;20033;-65
2023/03/09 09:24:18;;;;;;;33.55;19.15;;;1.30;99.90;;;;;;5034594;28;20029;-65
2023/03/09 09:26:44;;;;;;;29.83;17.00;;;1.40;99.90;;;;;;5037100;28;20033;-61
2023/03/09 09:29:10;;;;;;;29.33;17.90;;;1.50;99.90;;;;;;5028847;28;20386;-61
2023/03/09 09:31:36;;;;;;;33.85;17.48;;;1.60;99.90;;;;;;5044690;28;20037;-61
2023/03/09 09:34:01;;;;;;;31.77;18.08;;;1.70;99.90;;;;;;5028593;28;20059;-61
2023/03/09 09:36:27;;;;;;;29.83;16.90;;;1.70;99.90;;;;;;5045654;28;20025;-61
2023/03/09 09:38:53;;;;;;;34.95;19.02;;;1.60;99.90;;;;;;5028833;28;20132;-61
2023/03/09 09:41:35;;;;;;;32.75;19.33;;;1.60;99.90;;;;;;5045263;28;20223;-60
2023/03/09 09:44:04;;;;;;;29.00;17.98;;;1.60;99.90;;;;;;5047835;28;20233;-61
2023/03/09 09:46:31;;;;;;;29.40;17.50;;;1.50;99.90;;;;;;5034604;28;20032;-60
2023/03/09 09:48:59;;;;;;;23.70;15.00;;;1.70;99.90;;;;;;5028105;28;20124;-60
2023/03/09 09:51:59;;;;;;;31.00;19.30;;;1.70;99.90;;;;;;5045816;28;20044;-60
2023/03/09 09:54:55;;;;;;;34.08;19.05;;;1.70;99.90;;;;;;5028835;28;20030;-60
2023/03/09 09:57:43;;;;;;;29.23;19.50;;;1.60;99.90;;;;;;5030049;28;20101;-60
2023/03/09 10:00:34;;;;;;;28.40;17.52;;;1.60;99.90;;;;;;5008545;28;20038;-60
2023/03/09 10:03:22;;;;;;;31.42;17.30;;;1.60;99.90;;;;;;5007812;28;20422;-60
2023/03/09 10:06:03;;;;;;;30.88;18.33;;;1.60;99.90;;;;;;5025037;28;20037;-60
2023/03/09 10:08:40;;;;;;;30.80;17.88;;;1.50;99.90;;;;;;5047888;28;20024;-60
2023/03/09 10:11:13;;;;;;;28.60;17.95;;;1.50;99.90;;;;;;5016051;28;20503;-61
2023/03/09 10:13:46;;;;;;;31.17;17.33;;;1.50;99.90;;;;;;5047893;28;20159;-61
2023/03/09 10:16:20;;;;;;;27.42;16.85;;;1.50;99.90;;;;;;5031522;28;20468;-61
2023/03/09 10:18:50;;;;;;;30.25;17.45;;;1.50;99.90;;;;;;5048010;28;20025;-61
2023/03/09 10:21:22;;;;;;;27.58;16.15;;;1.60;99.90;;;;;;5031898;28;20142;-61
2023/03/09 10:23:48;;;;;;;29.75;17.67;;;1.60;99.90;;;;;;5047547;28;20036;-61
2023/03/09 10:26:32;;;;;;;34.60;17.88;;;1.60;99.90;;;;;;5032245;28;20033;-61
2023/03/09 10:29:03;;;;;;;27.85;16.48;;;1.60;99.90;;;;;;5046119;28;20512;-60
2023/03/09 10:31:41;;;;;;;30.52;18.77;;;1.70;99.90;;;;;;5021734;28;20045;-61
2023/03/09 10:34:16;;;;;;;29.17;16.88;;;1.70;99.90;;;;;;5008061;28;20030;-61
2023/03/09 10:36:57;;;;;;;25.60;16.40;;;1.70;99.90;;;;;;5025337;28;20033;-61
2023/03/09 10:39:23;;;;;;;30.30;17.63;;;1.80;99.90;;;;;;5027644;28;20033;-61
2023/03/09 10:41:49;;;;;;;28.35;16.48;;;1.70;99.90;;;;;;5045290;28;20037;-61
2023/03/09 10:44:18;;;;;;;29.83;17.27;;;1.80;99.90;;;;;;5031847;28;20077;-61
2023/03/09 10:46:59;;;;;;;35.95;18.10;;;1.70;99.90;;;;;;5049210;28;20028;-61
2023/03/09 10:49:25;;;;;;;29.50;16.45;;;1.70;99.90;;;;;;5031571;28;20449;-61
2023/03/09 10:51:59;;;;;;;30.45;16.80;;;1.70;99.90;;;;;;5048761;28;20029;-61
2023/03/09 10:54:27;;;;;;;28.23;16.33;;;1.70;99.90;;;;;;5051520;28;20029;-61
2023/03/09 10:56:53;;;;;;;26.45;15.40;;;1.80;99.90;;;;;;5030252;28;20075;-60
2023/03/09 10:59:27;;;;;;;28.35;15.40;;;1.90;99.90;;;;;;5011625;28;20036;-61
2023/03/09 11:01:59;;;;;;;27.65;16.67;;;1.90;99.90;;;;;;5009713;28;20599;-60
2023/03/09 11:04:28;;;;;;;31.33;17.13;;;2.00;99.90;;;;;;5031283;28;20052;-61
2023/03/09 11:06:54;;;;;;;31.60;17.83;;;1.90;99.90;;;;;;5046337;28;20075;-60
2023/03/09 11:09:35;;;;;;;32.60;18.25;;;1.80;99.90;;;;;;5031069;28;20391;-61
2023/03/09 11:12:17;;;;;;;35.35;20.40;;;1.70;99.90;;;;;;5010351;28;20025;-61
2023/03/09 11:14:56;;;;;;;32.28;19.15;;;1.60;99.90;;;;;;5031091;28;20028;-60
2023/03/09 11:17:38;;;;;;;29.70;17.67;;;1.70;99.90;;;;;;5013289;28;20022;-60
2023/03/09 11:20:15;;;;;;;28.20;16.67;;;1.70;99.90;;;;;;5031196;28;20025;-61
2023/03/09 11:23:22;;;;;;;30.75;18.10;;;1.70;99.90;;;;;;5041718;28;20025;-62
2023/03/09 11:26:07;;;;;;;28.83;16.83;;;1.70;99.90;;;;;;4990675;28;20069;-61
2023/03/09 11:29:03;;;;;;;33.85;19.63;;;1.70;99.90;;;;;;5027874;28;20510;-61
2023/03/09 11:31:36;;;;;;;33.55;20.45;;;1.80;99.90;;;;;;5009863;28;20045;-61
2023/03/09 11:34:04;;;;;;;36.83;20.02;;;1.70;99.90;;;;;;5030974;28;20025;-61
2023/03/09 11:36:43;;;;;;;35.45;20.30;;;1.70;99.90;;;;;;5049872;28;20033;-61
2023/03/09 11:39:19;;;;;;;36.42;19.80;;;1.70;99.90;;;;;;5026984;28;20026;-61
2023/03/09 11:41:47;;;;;;;34.55;19.52;;;1.70;99.90;;;;;;5050222;28;20134;-61
2023/03/09 11:44:18;;;;;;;32.55;19.20;;;1.70;99.90;;;;;;5028868;28;20485;-61
2023/03/09 11:46:44;;;;;;;30.85;18.83;;;1.70;99.90;;;;;;5049339;28;20389;-61
2023/03/09 11:49:19;;;;;;;33.83;19.60;;;1.70;99.90;;;;;;5029210;28;20030;-60
2023/03/09 11:51:50;;;;;;;34.28;19.90;;;1.70;99.90;;;;;;5010434;28;20049;-60
2023/03/09 11:54:41;;;;;;;36.58;21.38;;;1.70;99.90;;;;;;5027526;28;20030;-60
2023/03/09 11:57:13;;;;;;;34.58;20.27;;;1.70;99.90;;;;;;5012385;28;20025;-60
2023/03/09 11:59:49;;;;;;;36.53;19.85;;;1.70;99.90;;;;;;5049574;28;20013;-61
2023/03/09 12:02:40;;;;;;;35.42;19.52;;;1.70;99.90;;;;;;5013042;28;20497;-60
2023/03/09 12:05:11;;;;;;;32.65;18.92;;;1.80;99.90;;;;;;5038145;28;20038;-60
2023/03/09 12:07:53;;;;;;;32.65;17.77;;;1.90;99.90;;;;;;5033771;28;20028;-60
2023/03/09 12:10:36;;;;;;;39.45;22.25;;;2.00;99.90;;;;;;5049518;28;20025;-60
2023/03/09 12:13:33;;;;;;;29.92;18.23;;;2.00;99.90;;;;;;5026605;28;20043;-60
2023/03/09 12:16:05;;;;;;;28.95;16.60;;;2.10;99.90;;;;;;5009612;28;20042;-60
2023/03/09 12:18:40;;;;;;;29.05;17.67;;;2.10;99.90;;;;;;5021404;28;20061;-60
2023/03/09 12:21:09;;;;;;;35.30;20.38;;;2.20;99.90;;;;;;5010161;28;20188;-60
2023/03/09 12:23:39;;;;;;;31.10;18.77;;;2.10;99.90;;;;;;5033312;28;20025;-61
2023/03/09 12:26:20;;;;;;;32.50;18.95;;;2.20;99.90;;;;;;5049121;28;20473;-60
2023/03/09 12:29:13;;;;;;;32.10;18.30;;;2.10;99.90;;;;;;5023336;28;20512;-60
2023/03/09 12:31:39;;;;;;;29.13;17.30;;;2.10;99.90;;;;;;5009143;28;20155;-60
2023/03/09 12:34:24;;;;;;;33.85;18.40;;;2.10;99.90;;;;;;5028347;28;20052;-60
2023/03/09 12:36:50;;;;;;;32.80;18.95;;;2.10;99.90;;;;;;5009767;28;20131;-60
2023/03/09 12:39:24;;;;;;;31.27;18.40;;;2.10;99.90;;;;;;5046624;28;20032;-60
2023/03/09 12:41:58;;;;;;;32.75;20.45;;;2.10;99.90;;;;;;5029777;28;20029;-61
2023/03/09 12:44:50;;;;;;;32.08;20.00;;;2.00;99.90;;;;;;5029509;28;20025;-60